Terminal Aerodrome Forecast
Issued by NWS

Home | Current Version | Previous Version | Text Only | Print | Product List | Glossary On
Versions: 1 2 3 4 5 6 7 8 9 10 11 12 13 14 15 16 17 18 19 20 21 22 23 24 25 26 27 28 29 30 31 32 33 34 35 36 37 38 39 40
000
FTUS43 KDDC 100500
TAFGCK
TAF
KGCK 100532Z 1006/1106 18008KT P6SM SCT250
     FM100630 VRB06KT P6SM SCT250
     FM100900 18012G18KT P6SM SCT250
     FM101600 19022G31KT P6SM SKC
     FM110000 17014G22KT P6SM SKC=

USA.gov is the U.S. government's official web portal to all federal, state and local government web resources and services.